createdAt,value
2023-05-04T00:03:51.001Z,8.10
2023-05-04T00:08:43.217Z,7.30
2023-05-04T00:13:35.178Z,7.10
2023-05-04T00:18:27.432Z,8.53
2023-05-04T00:23:19.752Z,8.80
2023-05-04T00:28:11.791Z,8.10
2023-05-04T00:33:03.940Z,6.93
2023-05-04T00:37:56.622Z,7.57
2023-05-04T00:42:48.679Z,6.97
2023-05-04T00:47:42.005Z,7.00
2023-05-04T00:52:34.677Z,7.03
2023-05-04T00:57:26.907Z,7.20
2023-05-04T01:02:19.945Z,7.17
2023-05-04T01:13:14.334Z,6.83
2023-05-04T01:18:07.345Z,7.67
2023-05-04T01:22:59.998Z,6.70
2023-05-04T01:28:17.768Z,7.53
2023-05-04T01:33:10.812Z,7.47
2023-05-04T01:38:03.765Z,7.30
2023-05-04T01:42:55.957Z,7.30
2023-05-04T01:47:48.710Z,7.67
2023-05-04T01:52:40.837Z,6.33
2023-05-04T01:57:33.043Z,7.20
2023-05-04T02:02:25.691Z,6.63
2023-05-04T02:07:17.884Z,7.60
2023-05-04T02:12:10.078Z,7.00
2023-05-04T02:17:02.092Z,7.60
2023-05-04T02:21:54.163Z,7.03
2023-05-04T02:26:47.100Z,7.20
2023-05-04T02:31:39.944Z,7.30
2023-05-04T02:36:32.281Z,8.10
2023-05-04T02:41:24.300Z,8.27
2023-05-04T02:46:17.327Z,8.07
2023-05-04T02:51:09.374Z,8.30
2023-05-04T02:56:01.522Z,8.50
2023-05-04T03:00:55.859Z,7.37
2023-05-04T03:05:48.024Z,8.57
2023-05-04T03:10:40.102Z,8.27
2023-05-04T03:15:34.644Z,7.50
2023-05-04T03:20:26.826Z,9.40
2023-05-04T03:25:19.073Z,8.80
2023-05-04T03:30:11.895Z,8.73
2023-05-04T03:35:04.464Z,9.43
2023-05-04T03:39:57.145Z,9.17
2023-05-04T03:44:49.418Z,11.20
2023-05-04T03:49:41.486Z,22.10
2023-05-04T03:54:33.572Z,11.80
2023-05-04T03:59:25.889Z,10.00
2023-05-04T04:04:18.806Z,9.53
2023-05-04T04:09:10.970Z,8.70
2023-05-04T04:14:03.070Z,7.23
2023-05-04T04:18:55.066Z,8.33
2023-05-04T04:23:47.127Z,7.93
2023-05-04T04:28:39.238Z,8.07
2023-05-04T04:33:31.356Z,8.40
2023-05-04T04:38:23.392Z,6.60
2023-05-04T04:43:15.420Z,5.93
2023-05-04T04:48:07.565Z,5.13
2023-05-04T04:53:00.027Z,5.57
2023-05-04T04:57:52.978Z,5.00
2023-05-04T05:02:45.747Z,5.50
2023-05-04T05:07:37.969Z,5.33
2023-05-04T05:12:30.083Z,8.37
2023-05-04T05:17:22.235Z,7.20
2023-05-04T05:22:14.452Z,5.03
2023-05-04T05:27:06.474Z,4.37
2023-05-04T05:31:58.492Z,4.93
2023-05-04T05:36:50.482Z,4.73
2023-05-04T05:41:43.830Z,4.33
2023-05-04T05:46:36.070Z,5.13
2023-05-04T05:51:28.104Z,5.00
2023-05-04T05:56:20.182Z,4.80
2023-05-04T06:01:13.445Z,3.77
2023-05-04T06:06:05.830Z,4.30
2023-05-04T06:10:58.368Z,3.47
2023-05-04T06:15:54.295Z,3.63
2023-05-04T06:20:46.721Z,3.57
2023-05-04T06:25:38.819Z,3.83
2023-05-04T06:30:30.961Z,3.60
2023-05-04T06:35:23.245Z,3.43
2023-05-04T06:40:15.849Z,3.67
2023-05-04T06:45:08.468Z,3.47
2023-05-04T06:50:02.357Z,3.53
2023-05-04T06:54:55.727Z,3.45
2023-05-04T06:59:47.913Z,3.00
2023-05-04T07:04:40.184Z,3.55
2023-05-04T07:09:32.504Z,3.70
2023-05-04T07:14:24.656Z,3.20
2023-05-04T07:19:17.067Z,3.03
2023-05-04T07:24:09.232Z,3.03
2023-05-04T07:29:01.434Z,3.65
2023-05-04T07:33:53.606Z,3.55
2023-05-04T07:38:45.693Z,3.17
2023-05-04T07:43:37.770Z,3.08
2023-05-04T07:48:29.881Z,2.70
2023-05-04T07:53:22.025Z,2.85
2023-05-04T07:58:15.339Z,2.53
2023-05-04T08:03:07.348Z,2.90
2023-05-04T08:07:59.504Z,2.63
2023-05-04T08:12:51.704Z,2.60
2023-05-04T08:17:44.331Z,2.28
2023-05-04T08:22:36.725Z,2.70
2023-05-04T08:27:28.776Z,2.75
2023-05-04T08:32:20.783Z,2.53
2023-05-04T08:37:13.412Z,2.47
2023-05-04T08:42:05.753Z,2.90
2023-05-04T08:46:57.730Z,2.42
2023-05-04T08:51:50.869Z,2.58
2023-05-04T08:56:44.572Z,2.55
2023-05-04T09:01:38.912Z,2.50
2023-05-04T09:06:32.069Z,2.22
2023-05-04T09:11:24.239Z,2.00
2023-05-04T09:16:16.535Z,2.45
2023-05-04T09:21:09.453Z,2.58
2023-05-04T09:26:01.753Z,2.22
2023-05-04T09:31:00.928Z,2.22
2023-05-04T09:35:53.121Z,2.30
2023-05-04T09:40:46.262Z,2.33
2023-05-04T09:45:42.163Z,2.33
2023-05-04T09:50:35.645Z,2.45
2023-05-04T09:55:28.589Z,2.20
2023-05-04T10:00:21.989Z,2.45
2023-05-04T10:05:17.904Z,2.22
2023-05-04T10:10:13.658Z,1.73
2023-05-04T10:15:12.123Z,2.72
2023-05-04T10:20:16.652Z,2.20
2023-05-04T10:25:32.945Z,3.03
2023-05-04T10:30:25.758Z,2.40
2023-05-04T10:35:19.841Z,1.95
2023-05-04T10:40:12.523Z,2.45
2023-05-04T10:45:07.227Z,1.90
2023-05-04T10:50:09.179Z,1.77
2023-05-04T10:55:02.824Z,2.50
2023-05-04T10:59:57.812Z,2.50
2023-05-04T11:05:08.545Z,2.13
2023-05-04T11:10:03.404Z,2.13
2023-05-04T11:15:12.151Z,1.88
2023-05-04T11:20:04.481Z,2.40
2023-05-04T11:24:56.651Z,2.65
2023-05-04T11:30:05.859Z,2.58
2023-05-04T11:34:57.892Z,2.00
2023-05-04T11:39:50.568Z,2.37
2023-05-04T11:44:43.075Z,2.30
2023-05-04T11:49:35.322Z,2.97
2023-05-04T11:54:27.572Z,2.10
2023-05-04T11:59:19.583Z,2.53
2023-05-04T12:04:11.746Z,2.63
2023-05-04T12:09:06.342Z,2.13
2023-05-04T12:14:14.063Z,1.83
2023-05-04T12:19:13.646Z,2.00
2023-05-04T12:24:06.774Z,2.13
2023-05-04T12:28:59.120Z,2.50
2023-05-04T12:33:51.600Z,2.30
2023-05-04T12:38:43.593Z,2.23
2023-05-04T12:43:35.751Z,1.90
2023-05-04T12:48:29.226Z,1.77
2023-05-04T12:53:22.459Z,1.70
2023-05-04T12:58:15.732Z,2.20
2023-05-04T13:03:08.710Z,1.90
2023-05-04T13:08:01.110Z,1.90
2023-05-04T13:12:53.196Z,2.47
2023-05-04T13:17:45.471Z,1.97
2023-05-04T13:22:37.777Z,1.90
2023-05-04T13:27:30.640Z,2.50
2023-05-04T13:32:22.766Z,1.87
2023-05-04T13:37:18.404Z,2.17
2023-05-04T13:42:14.148Z,1.53
2023-05-04T13:47:06.254Z,2.30
2023-05-04T13:51:58.971Z,1.97
2023-05-04T13:56:52.202Z,1.90
2023-05-04T14:01:44.830Z,2.00
2023-05-04T14:06:37.208Z,1.73
2023-05-04T14:11:31.495Z,2.27
2023-05-04T14:16:24.038Z,2.13
2023-05-04T14:21:16.549Z,1.70
2023-05-04T14:26:08.721Z,2.00
2023-05-04T14:31:08.670Z,1.93
2023-05-04T14:36:01.017Z,1.70
2023-05-04T14:40:55.347Z,1.97
2023-05-04T14:45:47.486Z,1.90
2023-05-04T14:50:39.980Z,2.67
2023-05-04T14:55:34.100Z,1.80
2023-05-04T15:00:26.226Z,2.43
2023-05-04T15:05:19.844Z,1.67
2023-05-04T15:10:13.696Z,2.10
2023-05-04T15:15:06.297Z,2.00
2023-05-04T15:19:58.386Z,1.67
2023-05-04T15:24:51.601Z,2.20
2023-05-04T15:29:43.568Z,2.20
2023-05-04T15:34:35.722Z,1.97
2023-05-04T15:39:27.696Z,1.80
2023-05-04T15:44:21.124Z,2.00
2023-05-04T15:49:13.376Z,1.77
2023-05-04T15:54:05.533Z,1.90
2023-05-04T15:58:57.503Z,2.00
2023-05-04T16:03:49.670Z,2.03
2023-05-04T16:08:41.761Z,1.67
2023-05-04T16:13:34.037Z,2.07
2023-05-04T16:18:26.125Z,1.70
2023-05-04T16:23:18.618Z,2.40
2023-05-04T16:28:11.320Z,2.07
2023-05-04T16:33:03.850Z,2.13
2023-05-04T16:37:55.849Z,2.23
2023-05-04T16:42:47.887Z,2.63
2023-05-04T16:47:41.565Z,1.90
2023-05-04T16:52:33.849Z,1.80
2023-05-04T16:57:25.931Z,2.10
2023-05-04T17:02:19.224Z,1.67
2023-05-04T17:07:11.345Z,2.20
2023-05-04T17:12:03.617Z,2.00
2023-05-04T17:16:55.729Z,1.83
2023-05-04T17:21:47.876Z,3.40
2023-05-04T17:26:39.870Z,1.70
2023-05-04T17:31:31.997Z,2.00
2023-05-04T17:36:24.137Z,2.07
2023-05-04T17:41:16.283Z,1.93
2023-05-04T17:46:08.554Z,2.30
2023-05-04T17:51:00.590Z,1.90
2023-05-04T17:55:52.676Z,2.10
2023-05-04T18:00:44.952Z,1.97
2023-05-04T18:05:40.426Z,1.70
2023-05-04T18:10:32.696Z,1.87
2023-05-04T18:15:24.974Z,1.63
2023-05-04T18:20:17.223Z,1.80
2023-05-04T18:25:09.732Z,3.63
2023-05-04T18:30:03.476Z,2.97
2023-05-04T18:34:58.079Z,2.20
2023-05-04T18:39:50.435Z,2.70
2023-05-04T18:44:42.581Z,3.07
2023-05-04T18:49:34.771Z,2.93
2023-05-04T18:54:32.523Z,2.60
2023-05-04T18:59:25.647Z,3.33
2023-05-04T19:04:21.002Z,2.87
2023-05-04T19:09:14.461Z,2.80
2023-05-04T19:14:06.759Z,3.27
2023-05-04T19:18:58.784Z,2.53
2023-05-04T19:23:50.985Z,3.33
2023-05-04T19:28:43.065Z,2.20
2023-05-04T19:33:47.291Z,1.90
2023-05-04T19:38:39.738Z,2.03
2023-05-04T19:43:33.561Z,1.97
2023-05-04T19:48:25.725Z,2.50
2023-05-04T19:53:17.810Z,2.30
2023-05-04T19:58:10.858Z,2.30
2023-05-04T20:03:03.043Z,2.87
2023-05-04T20:07:55.119Z,2.00
2023-05-04T20:12:47.250Z,4.00
2023-05-04T20:17:39.326Z,3.20
2023-05-04T20:22:32.407Z,2.40
2023-05-04T20:27:24.507Z,2.90
2023-05-04T20:32:17.281Z,3.10
2023-05-04T20:37:09.651Z,2.73
2023-05-04T20:42:01.734Z,2.67
2023-05-04T20:46:53.841Z,2.87
2023-05-04T20:51:46.216Z,2.93
2023-05-04T20:56:38.258Z,3.10
2023-05-04T21:01:30.392Z,2.57
2023-05-04T21:06:24.347Z,3.00
2023-05-04T21:11:16.564Z,2.60
2023-05-04T21:16:08.966Z,3.23
2023-05-04T21:21:06.055Z,2.53
2023-05-04T21:26:04.720Z,3.17
2023-05-04T21:30:57.060Z,3.13
2023-05-04T21:35:49.146Z,2.63
2023-05-04T21:40:41.298Z,2.13
2023-05-04T21:45:33.769Z,2.73
2023-05-04T21:50:26.451Z,2.83
2023-05-04T21:55:18.628Z,3.07
2023-05-04T22:00:18.254Z,2.70
2023-05-04T22:05:11.006Z,3.03
2023-05-04T22:10:07.337Z,2.93
2023-05-04T22:14:59.579Z,2.77
2023-05-04T22:19:51.578Z,3.40
2023-05-04T22:24:43.627Z,3.30
2023-05-04T22:29:35.912Z,3.27
2023-05-04T22:34:27.999Z,3.70
2023-05-04T22:39:20.174Z,3.40
2023-05-04T22:44:12.220Z,3.50
2023-05-04T22:49:04.675Z,3.23
2023-05-04T22:53:56.671Z,3.10
2023-05-04T22:58:48.751Z,3.03
2023-05-04T23:03:41.066Z,3.73
2023-05-04T23:08:33.209Z,3.70
2023-05-04T23:13:25.282Z,3.57
2023-05-04T23:18:17.275Z,3.33
2023-05-04T23:23:09.471Z,3.43
2023-05-04T23:28:01.431Z,3.60
2023-05-04T23:32:53.473Z,3.30
2023-05-04T23:37:45.549Z,3.50
2023-05-04T23:42:37.671Z,3.20
2023-05-04T23:47:29.733Z,3.97
2023-05-04T23:52:21.808Z,3.73
2023-05-04T23:57:13.821Z,3.20
